Atmospheric History
02/08/2018 19:51  to  2/9/2018 19:51
Change End Date:
To complete the export process:
1) Select all of the data below
2) Copy the data to the clipboard
3) Open a word processor such as Notepad
4) Paste the data into the word processor
5) Save the file

Date/Time (MST), AirTemp, RH, Dewpoint ,AvgWindSpeed, GustWindSpeed, WindDirection, PrecipType, PrecipIntensity, PrecipAccumulation, PrecipRate ,Visibility
02/09/2018 19:49, -3, 85, -6 ,9, 11, N, None, None, 0.04, 0 ,6560
02/09/2018 19:39, -2, 82, -6 ,9, 11, N, None, None, 0.04, 0 ,6560
02/09/2018 19:38, -2, 82, -6 ,9, 11, N, None, None, 0.04, 0 ,6560
02/09/2018 19:29, -3, 73, -9 ,7, 7, N, None, None, 0.04, 0 ,6560
02/09/2018 19:23, 0, 78, -6 ,7, 7, N, None, None, 0.04, 0 ,6560
02/09/2018 19:19, -1, 82, -5 ,7, 7, N, None, None, 0.04, 0 ,6560
02/09/2018 19:09, -4, 74, -10 ,7, 7, N, None, None, 0.04, 0 ,6560
02/09/2018 19:09, -3, 73, -10 ,6, 7, N, None, None, 0.04, 0 ,6560
02/09/2018 18:59, 0, 69, -8 ,3, 4, NW, None, None, 0.04, 0 ,6560
02/09/2018 18:53, 1, 64, -8 ,2, 3, NW, None, None, 0.04, 0 ,6560
02/09/2018 18:49, 1, 66, -7 ,2, 2, NW, None, None, 0.04, 0 ,6560
02/09/2018 18:39, -2, 74, -8 ,2, 3, N, None, None, 0.04, 0 ,6560
02/09/2018 18:38, -2, 75, -8 ,2, 3, N, None, None, 0.04, 0 ,6560
02/09/2018 18:29, -3, 74, -9 ,1, 2, N, None, None, 0.04, 0 ,6560
02/09/2018 18:23, -3, 75, -9 ,2, 2, N, None, None, 0.04, 0 ,6560
02/09/2018 18:19, -4, 75, -10 ,1, 1, NW, None, None, 0.04, 0 ,6560
02/09/2018 18:09, -4, 78, -9 ,1, 1, NW, None, None, 0.04, 0 ,6560
02/09/2018 18:07, -5, 78, -10 ,1, 1, NW, None, None, 0.05, 0 ,6560
02/09/2018 17:59, -5, 73, -11 ,0, 1, W, None, None, 0.05, 0 ,6560
02/09/2018 17:52, -3, 70, -10 ,1, 2, W, None, None, 0.05, 0 ,6560
02/09/2018 17:49, -2, 70, -9 ,1, 3, W, None, None, 0.05, 0 ,6560
02/09/2018 17:39, -1, 70, -9 ,2, 3, W, None, None, 0.05, 0 ,6560
02/09/2018 17:37, -1, 70, -9 ,2, 2, W, None, None, 0.05, 0 ,6560
02/09/2018 17:29, -3, 73, -10 ,1, 2, S, None, None, 0.05, 0 ,6560
02/09/2018 17:23, -3, 72, -10 ,0, 2, E, None, None, 0.05, 0 ,6560
02/09/2018 17:19, -3, 72, -10 ,1, 2, E, None, None, 0.05, 0 ,6560
02/09/2018 17:09, -4, 69, -12 ,3, 4, SE, None, None, 0.06, 0 ,6560
02/09/2018 17:08, -4, 69, -12 ,4, 4, E, None, None, 0.06, 0 ,6560
02/09/2018 16:59, -1, 68, -9 ,4, 4, SE, None, None, 0.06, 0 ,6560
02/09/2018 16:53, 0, 66, -9 ,2, 3, SE, None, None, 0.06, 0 ,6560
02/09/2018 16:48, 1, 66, -8 ,1, 2, E, None, None, 0.06, 0 ,6560
02/09/2018 16:38, 1, 66, -8 ,1, 3, SE, None, None, 0.06, 0 ,6560
02/09/2018 16:38, 1, 65, -9 ,1, 3, SE, None, None, 0.06, 0 ,6560
02/09/2018 16:28, 2, 63, -8 ,2, 3, SE, None, None, 0.07, 0 ,6560
02/09/2018 16:23, 2, 65, -7 ,2, 3, SE, None, None, 0.07, 0 ,6560
02/09/2018 16:18, 2, 66, -7 ,3, 4, SE, None, None, 0.07, 0 ,6560
02/09/2018 16:08, 2, 67, -6 ,4, 6, SE, None, None, 0.08, 0 ,6560
02/09/2018 16:08, 2, 67, -6 ,4, 6, SE, None, None, 0.08, 0 ,6560
02/09/2018 15:58, 2, 64, -7 ,5, 6, E, None, None, 0.09, 0 ,6560
02/09/2018 15:53, 2, 64, -8 ,4, 4, E, None, None, 0.1, 0 ,6560
02/09/2018 15:48, 1, 65, -7 ,4, 4, E, None, None, 0.1, 0 ,6560
02/09/2018 15:38, 1, 65, -8 ,3, 3, E, None, None, 0.11, 0 ,6560
02/09/2018 15:38, 1, 65, -8 ,2, 3, E, None, None, 0.11, 0 ,6560
02/09/2018 15:28, 1, 67, -8 ,3, 4, E, None, None, 0.11, 0 ,6560
02/09/2018 15:23, 0, 67, -8 ,4, 4, E, None, None, 0.11, 0 ,6560
02/09/2018 15:18, 0, 65, -9 ,4, 4, E, None, None, 0.11, 0 ,6560
02/09/2018 15:08, 2, 59, -9 ,1, 2, SE, None, None, 0.11, 0 ,6560
02/09/2018 15:08, 2, 59, -9 ,1, 2, SE, None, None, 0.11, 0 ,6560
02/09/2018 14:58, 1, 60, -9 ,1, 2, SE, None, None, 0.12, 0 ,6560
02/09/2018 14:53, 1, 60, -9 ,1, 2, SE, None, None, 0.12, 0 ,6560
02/09/2018 14:48, 1, 63, -9 ,1, 2, E, None, None, 0.12, 0 ,6560
02/09/2018 14:38, 2, 58, -10 ,1, 2, E, None, None, 0.13, 0 ,6560
02/09/2018 14:38, 2, 58, -10 ,1, 2, E, None, None, 0.13, 0 ,6560
02/09/2018 14:28, 1, 62, -9 ,1, 1, SE, None, None, 0.13, 0 ,6560
02/09/2018 14:23, 1, 62, -9 ,1, 2, E, None, None, 0.13, 0 ,6560
02/09/2018 14:18, 1, 62, -9 ,1, 2, E, None, None, 0.13, 0 ,6560
02/09/2018 14:08, 0, 66, -8 ,2, 2, SE, None, None, 0.13, 0 ,6560
02/09/2018 14:07, 0, 66, -8 ,2, 2, SE, None, None, 0.14, 0 ,6560
02/09/2018 13:58, 1, 62, -9 ,2, 2, E, None, None, 0.14, 0 ,6560
02/09/2018 13:52, 0, 64, -9 ,2, 2, E, None, None, 0.14, 0 ,6560
02/09/2018 13:48, -1, 64, -10 ,2, 2, E, None, None, 0.14, 0 ,6560
02/09/2018 13:38, -1, 63, -10 ,2, 2, E, None, None, 0.14, 0 ,6560
02/09/2018 13:38, -1, 63, -10 ,2, 2, E, None, None, 0.14, 0 ,6560
02/09/2018 13:27, 0, 62, -10 ,1, 2, E, None, None, 0.15, 0 ,6560
02/09/2018 13:22, -1, 65, -10 ,1, 2, SE, None, None, 0.15, 0 ,6560
02/09/2018 13:17, -1, 65, -10 ,2, 2, SE, None, None, 0.15, 0 ,6560
02/09/2018 13:07, 1, 60, -10 ,2, 2, SE, None, None, 0.15, 0 ,6560
02/09/2018 13:07, 1, 60, -10 ,2, 2, SE, None, None, 0.15, 0 ,6560
02/09/2018 12:57, 0, 63, -10 ,1, 3, E, None, None, 0.15, 0 ,6560
02/09/2018 12:52, -1, 64, -10 ,1, 4, E, None, None, 0.15, 0 ,6560
02/09/2018 12:47, -1, 65, -10 ,4, 4, S, None, None, 0.15, 0 ,6560
02/09/2018 12:37, -2, 68, -10 ,3, 4, SE, None, None, 0.15, 0 ,6560
02/09/2018 12:37, -2, 68, -10 ,3, 4, SE, None, None, 0.15, 0 ,6560
02/09/2018 12:27, -2, 66, -11 ,2, 3, SE, None, None, 0.15, 0 ,6560
02/09/2018 12:22, -2, 65, -11 ,2, 2, E, None, None, 0.15, 0 ,6560
02/09/2018 12:17, -1, 65, -10 ,1, 2, E, None, None, 0.15, 0 ,6560
02/09/2018 12:07, -4, 71, -11 ,2, 4, E, None, None, 0.15, 0 ,6560
02/09/2018 12:07, -4, 71, -11 ,2, 4, E, None, None, 0.15, 0 ,6560
02/09/2018 11:57, -5, 72, -12 ,3, 4, E, None, None, 0.15, 0 ,6560
02/09/2018 11:52, -5, 70, -12 ,2, 3, E, None, None, 0.15, 0 ,6560
02/09/2018 11:47, -5, 69, -12 ,2, 2, E, None, None, 0.15, 0 ,6560
02/09/2018 11:37, -4, 69, -12 ,1, 2, SE, None, None, 0.16, 0 ,6560
02/09/2018 11:37, -4, 68, -12 ,1, 2, SE, None, None, 0.16, 0 ,6560
02/09/2018 11:27, -4, 66, -12 ,1, 1, SE, None, None, 0.16, 0 ,6560
02/09/2018 11:22, -4, 69, -12 ,0, 1, SE, None, None, 0.16, 0 ,6560
02/09/2018 11:17, -5, 64, -14 ,1, 1, E, None, None, 0.16, 0 ,6560
02/09/2018 11:07, -1, 60, -12 ,0, 0, W, Snow, Slight, 0.16, 0 ,6560
02/09/2018 11:07, -1, 60, -12 ,0, 0, W, Snow, Slight, 0.16, 0 ,6560
02/09/2018 10:57, -2, 58, -13 ,1, 1, W, None, None, 0.16, 0 ,6560
02/09/2018 10:53, 0, 66, -9 ,0, 1, W, None, None, 0.16, 0 ,6560
02/09/2018 10:47, -3, 73, -10 ,0, 0, E, None, None, 0.17, 0 ,6560
02/09/2018 10:38, -8, 71, -14 ,0, 1, E, None, None, 0.17, 0 ,6560
02/09/2018 10:37, -8, 71, -14 ,0, 1, E, None, None, 0.17, 0 ,6560
02/09/2018 10:27, -8, 68, -15 ,1, 1, NE, None, None, 0.17, 0 ,6560
02/09/2018 10:23, -5, 71, -12 ,0, 1, NW, None, None, 0.17, 0 ,6560
02/09/2018 10:17, -3, 79, -8 ,0, 1, NW, None, None, 0.17, 0 ,6560
02/09/2018 10:08, -5, 81, -9 ,0, 2, N, None, None, 0.17, 0 ,6560
02/09/2018 10:06, -5, 81, -9 ,0, 2, NE, None, None, 0.17, 0 ,6560
02/09/2018 09:56, -10, 78, -15 ,2, 4, NW, None, None, 0.17, 0 ,6560
02/09/2018 09:53, -10, 78, -15 ,4, 5, NW, None, None, 0.17, 0 ,6560
02/09/2018 09:46, -11, 78, -16 ,3, 6, NW, None, None, 0.17, 0 ,6560
02/09/2018 09:38, -11, 78, -16 ,3, 3, NW, None, None, 0.17, 0 ,6560
02/09/2018 09:36, -11, 78, -16 ,3, 4, NW, None, None, 0.18, 0 ,6560
02/09/2018 09:26, -9, 80, -14 ,2, 6, N, None, None, 0.18, 0 ,6560
02/09/2018 09:23, -10, 80, -14 ,3, 7, N, None, None, 0.18, 0 ,6560
02/09/2018 09:16, -12, 79, -17 ,6, 10, N, None, None, 0.19, 0 ,6560
02/09/2018 09:08, -13, 78, -18 ,9, 10, N, None, None, 0.19, 0 ,6560
02/09/2018 09:06, -12, 79, -17 ,9, 10, N, None, None, 0.19, 0 ,6560
02/09/2018 08:56, -14, 78, -18 ,3, 5, W, None, None, 0.19, 0 ,6560
02/09/2018 08:53, -13, 78, -18 ,4, 5, W, None, None, 0.19, 0 ,6560
02/09/2018 08:46, -13, 78, -18 ,2, 7, SW, None, None, 0.2, 0 ,6560
02/09/2018 08:37, -15, 77, -20 ,4, 7, N, None, None, 0.2, 0 ,6560
02/09/2018 08:36, -15, 77, -20 ,4, 6, NW, None, None, 0.2, 0 ,6560
02/09/2018 08:26, -14, 80, -18 ,4, 6, W, None, None, 0.2, 0 ,6560
02/09/2018 08:22, -16, 79, -20 ,4, 7, W, None, None, 0.2, 0 ,6560
02/09/2018 08:16, -18, 77, -23 ,6, 7, N, None, None, 0.2, 0 ,6560
02/09/2018 08:07, -17, 78, -21 ,6, 7, NW, None, None, 0.21, 0 ,6560
02/09/2018 08:06, -17, 78, -21 ,6, 7, NW, None, None, 0.21, 0 ,6560
02/09/2018 07:56, -15, 78, -20 ,6, 7, N, None, None, 0.21, 0 ,6560
02/09/2018 07:52, -14, 78, -19 ,6, 8, N, None, None, 0.21, 0 ,6560
02/09/2018 07:46, -12, 80, -16 ,7, 8, N, None, None, 0.22, 0 ,6560
02/09/2018 07:37, -11, 80, -16 ,6, 7, N, None, None, 0.22, 0 ,6560
02/09/2018 07:36, -11, 80, -15 ,6, 7, N, None, None, 0.22, 0 ,6560
02/09/2018 07:26, -12, 80, -16 ,7, 9, N, None, None, 0.24, 0 ,6560
02/09/2018 07:22, -11, 80, -15 ,7, 9, N, None, None, 0.24, 0 ,6560
02/09/2018 07:16, -11, 80, -16 ,7, 7, N, None, None, 0.25, 0 ,6560
02/09/2018 07:08, -10, 80, -15 ,6, 6, N, None, None, 0.25, 0 ,6560
02/09/2018 07:06, -9, 81, -13 ,6, 6, N, None, None, 0.27, 0 ,6560
02/09/2018 06:56, -9, 81, -13 ,5, 6, N, None, None, 0.28, 0 ,6560
02/09/2018 06:54, -9, 81, -13 ,5, 6, N, None, None, 0.28, 0 ,6560
02/09/2018 06:46, -10, 81, -14 ,4, 5, N, None, None, 0.3, 0 ,6560
02/09/2018 06:38, -10, 81, -14 ,3, 6, NW, None, None, 0.3, 0 ,6560
02/09/2018 06:35, -10, 81, -15 ,4, 6, N, None, None, 0.31, 0 ,6560
02/09/2018 06:25, -10, 82, -14 ,6, 6, N, None, None, 0.33, 0 ,6560
02/09/2018 06:23, -10, 82, -14 ,6, 6, N, None, None, 0.33, 0 ,6560
02/09/2018 06:15, -12, 79, -17 ,2, 4, W, None, None, 0.34, 0 ,6560
02/09/2018 06:08, -12, 79, -16 ,2, 5, N, None, None, 0.34, 0 ,6560
02/09/2018 06:05, -10, 81, -14 ,4, 5, N, None, None, 0.35, 0 ,6560
02/09/2018 05:55, -10, 81, -14 ,4, 6, N, None, None, 0.36, 0 ,6560
02/09/2018 05:53, -10, 81, -14 ,5, 6, N, None, None, 0.36, 0 ,6560
02/09/2018 05:45, -10, 81, -14 ,5, 7, N, None, None, 0.37, 0 ,6560
02/09/2018 05:38, -10, 82, -14 ,6, 6, N, None, None, 0.37, 0 ,6560
02/09/2018 05:35, -11, 81, -15 ,4, 4, NW, None, None, 0.37, 0 ,6560
02/09/2018 05:25, -10, 81, -15 ,1, 3, NW, None, None, 0.38, 0 ,6560
02/09/2018 05:23, -11, 81, -15 ,1, 3, NW, None, None, 0.38, 0 ,6560
02/09/2018 05:15, -12, 80, -16 ,2, 4, W, None, None, 0.39, 0 ,6560
02/09/2018 05:08, -12, 80, -16 ,3, 4, N, None, None, 0.39, 0 ,6560
02/09/2018 05:05, -10, 82, -14 ,2, 3, N, None, None, 0.4, 0 ,6560
02/09/2018 04:55, -12, 81, -16 ,1, 2, NE, None, None, 0.41, 0 ,6560
02/09/2018 04:53, -13, 80, -17 ,2, 2, NE, None, None, 0.41, 0 ,6560
02/09/2018 04:45, -12, 80, -17 ,2, 2, NE, None, None, 0.42, 0 ,6560
02/09/2018 04:38, -11, 82, -15 ,2, 4, NE, None, None, 0.42, 0 ,6560
02/09/2018 04:35, -11, 81, -15 ,2, 4, NE, None, None, 0.43, 0 ,6560
02/09/2018 04:25, -11, 81, -16 ,1, 2, NE, None, None, 0.43, 0 ,6560
02/09/2018 04:23, -11, 81, -16 ,1, 2, NE, None, None, 0.43, 0 ,6560
02/09/2018 04:15, -11, 81, -15 ,2, 2, NE, None, None, 0.44, 0 ,6560
02/09/2018 04:08, -10, 81, -14 ,2, 4, NE, None, None, 0.44, 0 ,6560
02/09/2018 04:05, -10, 81, -14 ,2, 4, E, None, None, 0.44, 0 ,6560
02/09/2018 03:55, -8, 83, -12 ,0, 1, S, None, None, 0.45, 0 ,6560
02/09/2018 03:53, -8, 83, -12 ,0, 1, S, None, None, 0.45, 0 ,6560
02/09/2018 03:45, -8, 82, -12 ,1, 1, S, None, None, 0.46, 0 ,6560
02/09/2018 03:38, -7, 83, -11 ,1, 2, S, None, None, 0.46, 0 ,6560
02/09/2018 03:35, -7, 82, -11 ,2, 2, S, None, None, 0.47, 0 ,6560
02/09/2018 03:25, -7, 83, -10 ,1, 2, S, None, None, 0.48, 0 ,6560
02/09/2018 03:23, -7, 83, -10 ,1, 1, S, None, None, 0.48, 0 ,6560
02/09/2018 03:14, -7, 83, -10 ,0, 1, E, None, None, 0.48, 0 ,6560
02/09/2018 03:08, -7, 83, -11 ,0, 1, E, None, None, 0.48, 0 ,6560
02/09/2018 03:04, -7, 83, -10 ,0, 1, E, None, None, 0.49, 0 ,6560
02/09/2018 02:54, -7, 83, -11 ,1, 1, E, Snow, Slight, 0.5, 0 ,6560
02/09/2018 02:53, -7, 82, -11 ,1, 1, E, Snow, Slight, 0.5, 0 ,6560
02/09/2018 02:44, -7, 83, -10 ,1, 1, E, Snow, Slight, 0.5, 0 ,6560
02/09/2018 02:38, -6, 83, -10 ,1, 1, E, Snow, Slight, 0.5, 0 ,6560
02/09/2018 02:34, -7, 83, -10 ,0, 1, E, Snow, Slight, 0.51, 0 ,6560
02/09/2018 02:24, -6, 82, -10 ,1, 1, E, Snow, Slight, 0.52, 0 ,6560
02/09/2018 02:23, -6, 82, -10 ,1, 1, E, Snow, Slight, 0.52, 0 ,6560
02/09/2018 02:14, -6, 83, -10 ,1, 2, E, Snow, Slight, 0.52, 0 ,6560
02/09/2018 02:08, -6, 82, -10 ,1, 1, SE, Snow, Slight, 0.52, 0 ,6560
02/09/2018 02:04, -6, 82, -10 ,1, 1, SE, Snow, Slight, 0.53, 0 ,6560
02/09/2018 01:54, -6, 82, -10 ,1, 1, SE, Snow, Slight, 0.54, 0 ,6560
02/09/2018 01:53, -6, 82, -10 ,1, 1, SE, Snow, Slight, 0.54, 0 ,6560
02/09/2018 01:44, -6, 82, -10 ,0, 1, SE, Snow, Slight, 0.54, 0 ,6560
02/09/2018 01:38, -6, 82, -10 ,1, 1, SE, Snow, Slight, 0.54, 0 ,6560
02/09/2018 01:34, -6, 82, -10 ,0, 0, SE, Snow, Slight, 0.55, 0 ,6560
02/09/2018 01:24, -6, 82, -10 ,1, 1, SE, Snow, Slight, 0.56, 0 ,6560
02/09/2018 01:23, -6, 82, -10 ,0, 2, SE, Snow, Slight, 0.56, 0 ,6560
02/09/2018 01:14, -6, 82, -10 ,2, 2, SE, Snow, Slight, 0.56, 0 ,6560
02/09/2018 01:08, -6, 82, -10 ,2, 2, SE, Snow, Slight, 0.56, 0 ,6560
02/09/2018 01:04, -6, 82, -10 ,2, 2, SE, Snow, Slight, 0.56, 0 ,6560
02/09/2018 00:54, -6, 82, -10 ,0, 1, SE, Snow, Slight, 0.57, 0 ,6560
02/09/2018 00:53, -6, 82, -10 ,0, 1, SE, Snow, Slight, 0.57, 0 ,6560
02/09/2018 00:44, -6, 82, -10 ,1, 1, E, Snow, Slight, 0.57, 0 ,5956
02/09/2018 00:38, -6, 82, -10 ,0, 0, E, Snow, Slight, 0.57, 0 ,5323
02/09/2018 00:34, -6, 82, -10 ,0, 1, E, Snow, Slight, 0.57, 0 ,6084
02/09/2018 00:24, -6, 82, -10 ,1, 2, E, Snow, Slight, 0.58, 0 ,6560
02/09/2018 00:23, -6, 82, -10 ,1, 2, E, Snow, Slight, 0.58, 0 ,6560
02/09/2018 00:14, -6, 82, -10 ,1, 1, SE, Snow, Slight, 0.58, 0 ,6560
02/09/2018 00:08, -6, 82, -10 ,0, 1, SE, Snow, Slight, 0.58, 0 ,6560
02/09/2018 00:04, -6, 82, -10 ,0, 1, SE, Snow, Slight, 0.58, 0 ,6143
02/08/2018 23:54, -6, 82, -10 ,1, 3, SW, Snow, Slight, 0.59, 0 ,6029
02/08/2018 23:53, -6, 82, -10 ,1, 3, SW, Snow, Slight, 0.59, 0 ,6029
02/08/2018 23:43, -6, 82, -10 ,0, 2, E, Snow, Slight, 0.59, 0 ,6560
02/08/2018 23:38, -6, 82, -10 ,0, 3, E, Snow, Slight, 0.59, 0 ,5136
02/08/2018 23:33, -6, 82, -10 ,2, 4, E, Snow, Slight, 0.59, 0 ,5068
02/08/2018 23:23, -6, 82, -10 ,4, 6, E, Snow, Slight, 0.59, 0 ,6560
02/08/2018 23:23, -6, 82, -10 ,4, 6, E, Snow, Slight, 0.59, 0 ,6560
02/08/2018 23:13, -6, 82, -10 ,5, 6, E, Snow, Slight, 0.59, 0 ,6560
02/08/2018 23:08, -6, 82, -10 ,6, 7, E, Snow, Slight, 0.59, 0 ,6560
02/08/2018 23:03, -6, 82, -10 ,6, 9, E, Snow, Slight, 0.6, 0 ,6560
02/08/2018 22:53, -5, 82, -9 ,6, 7, E, Snow, Slight, 0.6, 0 ,6560
02/08/2018 22:53, -5, 82, -9 ,6, 7, E, Snow, Slight, 0.6, 0 ,6560
02/08/2018 22:43, -5, 82, -9 ,6, 7, E, Snow, Slight, 0.6, 0 ,6560
02/08/2018 22:38, -5, 82, -9 ,6, 7, E, Snow, Slight, 0.6, 0 ,6560
02/08/2018 22:33, -5, 82, -9 ,6, 8, E, Snow, Slight, 0.6, 0 ,6560
02/08/2018 22:23, -5, 82, -9 ,7, 7, E, Snow, Slight, 0.61, 0 ,6560
02/08/2018 22:23, -5, 82, -9 ,7, 7, E, Snow, Slight, 0.61, 0 ,6560
02/08/2018 22:13, -5, 82, -9 ,6, 7, E, Snow, Slight, 0.61, 0 ,6560
02/08/2018 22:08, -5, 82, -9 ,6, 7, E, Snow, Slight, 0.61, 0 ,6560
02/08/2018 22:03, -5, 82, -9 ,6, 7, E, Snow, Slight, 0.61, 0 ,6560
02/08/2018 21:53, -5, 82, -9 ,6, 7, E, Snow, Slight, 0.61, 0 ,6560
02/08/2018 21:53, -5, 82, -9 ,6, 7, E, Snow, Slight, 0.61, 0 ,6560
02/08/2018 21:43, -5, 82, -9 ,6, 7, E, Snow, Slight, 0.61, 0 ,6560
02/08/2018 21:38, -5, 82, -9 ,7, 7, E, Snow, Slight, 0.61, 0 ,6560
02/08/2018 21:33, -5, 82, -9 ,6, 7, E, Snow, Slight, 0.62, 0 ,6560
02/08/2018 21:23, -5, 83, -8 ,4, 5, E, Snow, Slight, 0.62, 0 ,6560
02/08/2018 21:23, -5, 83, -8 ,4, 5, E, Snow, Slight, 0.62, 0 ,6560
02/08/2018 21:13, -4, 83, -8 ,2, 4, SE, Snow, Slight, 0.63, 0 ,4333
02/08/2018 21:08, -4, 83, -8 ,2, 6, SE, Snow, Slight, 0.63, 0 ,4054
02/08/2018 21:03, -4, 83, -8 ,5, 6, E, Snow, Slight, 0.63, 0 ,4431
02/08/2018 20:53, -4, 82, -8 ,2, 4, SE, Snow, Slight, 0.63, 0 ,6065
02/08/2018 20:53, -4, 82, -8 ,2, 4, SE, Snow, Slight, 0.63, 0 ,6065
02/08/2018 20:43, -4, 81, -8 ,3, 4, SE, Snow, Slight, 0.63, 0 ,6560
02/08/2018 20:38, -4, 81, -8 ,3, 4, E, Snow, Slight, 0.63, 0 ,6560
02/08/2018 20:33, -4, 81, -8 ,3, 4, E, Snow, Slight, 0.63, 0 ,6560
02/08/2018 20:23, -4, 81, -8 ,2, 5, E, Snow, Slight, 0.63, 0 ,6560
02/08/2018 20:23, -4, 81, -8 ,2, 5, E, Snow, Slight, 0.63, 0 ,6560
02/08/2018 20:13, -4, 79, -9 ,4, 6, NE, Snow, Slight, 0.63, 0 ,6560
02/08/2018 20:08, -4, 79, -9 ,5, 6, E, Snow, Slight, 0.63, 0 ,6560
02/08/2018 20:03, -4, 78, -9 ,4, 6, E, Snow, Slight, 0.63, 0 ,6560
02/08/2018 19:53, -3, 78, -9 ,5, 6, E, None, None, 0.63, 0 ,6560
02/08/2018 19:52, -3, 77, -9 ,5, 6, E, None, None, 0.63, 0 ,6560
Change End Date:

Copyright © 1998-2015 Vaisala, Inc.
All Rights Reserved
Send comments about the data to:
SCAN Web ® is a registered trademark of Vaisala, Inc.
SCAN Web Version 6.0